Time;durP1;ratioP1;P1;durP2;ratioP2;P2;SDS_P1;SDS_P2;PMS_P1;PMS_P2;Temp;Humidity;BMP_temperature;BMP_pressure;BME280_temperature;BME280_humidity;BME280_pressure;Samples;Min_cycle;Max_cycle;Signal;HPM_P1;HPM_P2
2024/01/22 00:01:53;;;;;;;0.50;0.20;;;4.50;99.90;;;;;;5056026;28;20454;-76
2024/01/22 00:04:22;;;;;;;0.50;0.10;;;4.50;99.90;;;;;;5056915;28;20530;-76
2024/01/22 00:06:52;;;;;;;0.60;0.40;;;4.50;99.90;;;;;;5066285;28;20480;-75
2024/01/22 00:09:19;;;;;;;9.93;1.90;;;4.60;99.90;;;;;;5066019;28;20530;-76
2024/01/22 00:11:47;;;;;;;0.60;0.40;;;4.60;99.90;;;;;;5054994;28;20454;-76
2024/01/22 00:14:15;;;;;;;0.50;0.10;;;4.60;99.90;;;;;;5055955;28;20469;-76
2024/01/22 00:16:42;;;;;;;0.60;0.40;;;4.70;99.90;;;;;;5064740;28;20887;-76
2024/01/22 00:19:10;;;;;;;0.60;0.40;;;4.70;99.90;;;;;;5069354;28;20496;-75
2024/01/22 00:21:43;;;;;;;0.50;0.10;;;5.50;99.90;;;;;;5061816;28;20438;-76
2024/01/22 00:24:11;;;;;;;0.50;0.10;;;4.70;99.90;;;;;;5054192;28;20936;-75
2024/01/22 00:26:40;;;;;;;0.50;0.10;;;4.70;99.90;;;;;;5056763;28;20461;-76
2024/01/22 00:29:07;;;;;;;2.70;2.47;;;4.70;99.90;;;;;;5056899;28;20440;-76
2024/01/22 00:31:35;;;;;;;1.00;0.30;;;4.70;99.90;;;;;;5065691;28;20969;-75
2024/01/22 00:34:03;;;;;;;2.90;2.77;;;4.80;99.90;;;;;;5065245;28;20502;-75
2024/01/22 00:36:31;;;;;;;0.50;0.20;;;4.80;99.90;;;;;;5071490;28;20557;-76
2024/01/22 00:39:00;;;;;;;0.50;0.20;;;4.80;99.90;;;;;;5055246;28;20474;-75
2024/01/22 00:41:28;;;;;;;1.80;1.70;;;4.80;99.90;;;;;;5064478;28;21013;-76
2024/01/22 00:43:56;;;;;;;0.50;0.10;;;4.90;99.90;;;;;;5066372;28;20962;-75
2024/01/22 00:46:24;;;;;;;0.50;0.20;;;4.90;99.90;;;;;;5059957;28;20532;-75
2024/01/22 00:48:52;;;;;;;0.50;0.10;;;4.90;99.90;;;;;;5059053;28;20450;-76
2024/01/22 00:51:20;;;;;;;0.50;0.10;;;4.90;99.90;;;;;;5066046;28;20446;-75
2024/01/22 00:53:48;;;;;;;0.50;0.10;;;4.90;99.90;;;;;;5060347;28;20439;-75
2024/01/22 00:56:17;;;;;;;2.00;1.33;;;5.00;99.90;;;;;;5060315;28;21337;-74
2024/01/22 00:58:45;;;;;;;1.43;0.93;;;5.00;99.90;;;;;;5059264;28;20520;-75
2024/01/22 01:01:13;;;;;;;0.50;0.20;;;5.00;99.90;;;;;;5051711;28;20495;-74
2024/01/22 01:03:41;;;;;;;0.70;0.30;;;5.10;99.90;;;;;;5063523;28;20441;-76
2024/01/22 01:06:09;;;;;;;0.50;0.10;;;5.10;99.90;;;;;;5071572;28;20464;-77
2024/01/22 01:08:37;;;;;;;0.50;0.10;;;5.10;99.90;;;;;;5070141;28;20845;-76
2024/01/22 01:11:05;;;;;;;0.50;0.10;;;5.10;99.90;;;;;;5065223;28;20442;-76
2024/01/22 01:13:34;;;;;;;0.50;0.10;;;5.20;99.90;;;;;;5067485;28;20961;-75
2024/01/22 01:16:02;;;;;;;1.37;0.93;;;5.20;99.90;;;;;;5058246;28;20500;-75
2024/01/22 01:18:30;;;;;;;0.50;0.10;;;5.20;99.90;;;;;;5071371;28;20481;-76
2024/01/22 01:20:58;;;;;;;0.50;0.10;;;5.20;99.90;;;;;;5065188;28;20911;-75
2024/01/22 01:23:26;;;;;;;1.47;1.37;;;5.30;99.90;;;;;;5051631;28;20453;-75
2024/01/22 01:25:54;;;;;;;0.50;0.10;;;5.20;99.90;;;;;;5061260;28;20504;-75
2024/01/22 01:28:22;;;;;;;0.50;0.10;;;5.30;99.90;;;;;;5054181;28;20438;-75
2024/01/22 01:30:51;;;;;;;0.50;0.20;;;5.30;99.90;;;;;;5051325;28;20473;-76
2024/01/22 01:33:19;;;;;;;0.50;0.20;;;5.30;99.90;;;;;;5063085;28;20462;-75
2024/01/22 01:35:47;;;;;;;0.50;0.10;;;5.30;99.90;;;;;;5059601;28;20504;-76
2024/01/22 01:38:15;;;;;;;0.50;0.10;;;5.40;99.90;;;;;;5062035;28;20439;-75
2024/01/22 01:40:43;;;;;;;0.50;0.10;;;5.40;99.90;;;;;;5068504;28;20448;-74
2024/01/22 01:43:11;;;;;;;0.50;0.10;;;5.40;99.90;;;;;;5068690;28;20835;-75
2024/01/22 01:45:39;;;;;;;1.00;0.50;;;5.40;99.90;;;;;;5070920;28;20451;-75
2024/01/22 01:48:08;;;;;;;0.50;0.10;;;5.40;99.90;;;;;;5063036;28;20546;-76
2024/01/22 01:50:37;;;;;;;0.50;0.10;;;5.40;99.90;;;;;;5063119;28;20545;-76
2024/01/22 01:53:06;;;;;;;0.70;0.67;;;5.40;99.90;;;;;;5065526;28;20442;-74
2024/01/22 01:55:36;;;;;;;0.50;0.10;;;5.40;99.90;;;;;;5053619;28;20480;-77
2024/01/22 01:58:04;;;;;;;1.53;0.30;;;5.40;99.90;;;;;;5052089;28;20469;-77
2024/01/22 02:00:33;;;;;;;0.50;0.10;;;5.40;99.90;;;;;;5064791;28;20500;-75
2024/01/22 02:03:02;;;;;;;0.50;0.10;;;5.40;99.90;;;;;;5054736;28;20867;-75
2024/01/22 02:05:31;;;;;;;0.50;0.10;;;5.40;99.90;;;;;;5063635;28;20448;-76
2024/01/22 02:07:59;;;;;;;0.60;0.50;;;5.40;99.90;;;;;;5068897;28;21068;-75
2024/01/22 02:10:28;;;;;;;0.50;0.30;;;5.40;99.90;;;;;;5061472;28;20899;-76
2024/01/22 02:12:56;;;;;;;0.60;0.37;;;5.40;99.90;;;;;;5063039;28;20486;-75
2024/01/22 02:15:24;;;;;;;0.50;0.10;;;5.40;99.90;;;;;;5072426;28;20519;-75
2024/01/22 02:17:52;;;;;;;0.50;0.10;;;5.40;99.90;;;;;;5066807;28;20469;-75
2024/01/22 02:20:21;;;;;;;0.50;0.10;;;5.40;99.90;;;;;;5074088;28;20505;-76
2024/01/22 02:22:50;;;;;;;0.50;0.20;;;6.90;99.90;;;;;;5066366;28;20477;-74
2024/01/22 02:25:19;;;;;;;0.50;0.10;;;5.40;99.90;;;;;;5072798;28;20453;-74
2024/01/22 02:27:47;;;;;;;0.50;0.10;;;5.40;99.90;;;;;;5063940;28;20536;-74
2024/01/22 02:30:15;;;;;;;12.43;6.90;;;5.40;99.90;;;;;;5070370;28;20886;-75
2024/01/22 02:32:43;;;;;;;0.50;0.10;;;5.40;99.90;;;;;;5074268;28;20906;-76
2024/01/22 02:35:11;;;;;;;0.50;0.20;;;5.40;99.90;;;;;;5072981;28;20453;-75
2024/01/22 02:37:39;;;;;;;0.50;0.10;;;5.40;99.90;;;;;;5068629;28;20519;-76
2024/01/22 02:40:08;;;;;;;0.60;0.27;;;5.40;99.90;;;;;;5068696;28;20586;-75
2024/01/22 02:42:37;;;;;;;0.50;0.30;;;5.40;99.90;;;;;;5073043;28;20548;-75
2024/01/22 02:45:07;;;;;;;0.50;0.10;;;5.40;99.90;;;;;;5073703;28;20807;-75
2024/01/22 02:47:35;;;;;;;0.50;0.10;;;5.40;99.90;;;;;;5067461;28;20522;-75
2024/01/22 02:50:04;;;;;;;0.50;0.10;;;5.40;99.90;;;;;;5065755;28;20434;-75
2024/01/22 02:52:32;;;;;;;0.50;0.10;;;5.50;99.90;;;;;;5074071;28;20471;-75
2024/01/22 02:54:59;;;;;;;0.50;0.20;;;5.50;99.90;;;;;;5061454;28;20637;-75
2024/01/22 02:57:27;;;;;;;0.50;0.17;;;5.50;99.90;;;;;;5064453;28;20473;-75
2024/01/22 02:59:56;;;;;;;0.50;0.20;;;5.50;99.90;;;;;;5060826;28;20528;-76
2024/01/22 03:02:24;;;;;;;0.50;0.10;;;5.60;99.90;;;;;;5063953;28;20459;-77
2024/01/22 03:04:52;;;;;;;0.50;0.10;;;5.60;99.90;;;;;;5073880;28;20454;-75
2024/01/22 03:07:20;;;;;;;0.50;0.10;;;5.60;99.90;;;;;;5069575;28;20515;-75
2024/01/22 03:09:48;;;;;;;0.50;0.20;;;7.90;99.90;;;;;;5062772;28;20464;-75
2024/01/22 03:12:16;;;;;;;0.53;0.20;;;5.70;99.90;;;;;;5068030;28;20447;-76
2024/01/22 03:14:44;;;;;;;0.50;0.10;;;5.70;99.90;;;;;;5067874;28;20453;-75
2024/01/22 03:17:13;;;;;;;0.50;0.10;;;5.70;99.90;;;;;;5062287;28;20461;-76
2024/01/22 03:19:41;;;;;;;0.50;0.10;;;5.70;99.90;;;;;;5058832;28;20475;-75
2024/01/22 03:22:09;;;;;;;0.50;0.10;;;5.70;99.90;;;;;;5067979;28;20442;-74
2024/01/22 03:24:38;;;;;;;1.33;0.40;;;5.70;99.90;;;;;;5072879;28;20867;-76
2024/01/22 03:27:05;;;;;;;1.43;1.33;;;5.80;99.90;;;;;;5061931;28;20494;-74
2024/01/22 03:29:33;;;;;;;1.90;1.80;;;5.80;99.90;;;;;;5063692;28;20960;-74
2024/01/22 03:32:01;;;;;;;0.50;0.10;;;5.80;99.90;;;;;;5074208;28;20438;-75
2024/01/22 03:34:30;;;;;;;0.50;0.20;;;5.80;99.90;;;;;;5070693;28;20442;-74
2024/01/22 03:36:58;;;;;;;0.50;0.10;;;5.80;99.90;;;;;;5066363;28;20465;-75
2024/01/22 03:39:26;;;;;;;0.50;0.10;;;;;;;;;;5065661;28;20547;-75
2024/01/22 03:41:54;;;;;;;0.50;0.10;;;5.80;99.90;;;;;;5073480;28;20476;-75
2024/01/22 03:44:22;;;;;;;0.50;0.10;;;5.80;99.90;;;;;;5072049;28;20879;-75
2024/01/22 03:46:50;;;;;;;1.83;0.57;;;5.80;99.90;;;;;;5067151;28;20560;-75
2024/01/22 03:49:18;;;;;;;0.50;0.10;;;5.80;99.90;;;;;;5068662;28;20445;-74
2024/01/22 03:51:48;;;;;;;0.80;0.73;;;5.80;99.90;;;;;;5073178;28;20470;-75
2024/01/22 03:54:15;;;;;;;0.60;0.40;;;5.80;99.90;;;;;;5066320;28;20446;-75
2024/01/22 03:56:44;;;;;;;0.50;0.10;;;5.80;99.90;;;;;;5071509;28;20478;-75
2024/01/22 03:59:12;;;;;;;0.50;0.10;;;5.80;99.90;;;;;;5072914;28;20862;-75
2024/01/22 04:01:40;;;;;;;0.50;0.10;;;5.80;99.90;;;;;;5072222;28;20992;-76
2024/01/22 04:04:08;;;;;;;0.87;0.87;;;5.80;99.90;;;;;;5071955;28;20953;-76
2024/01/22 04:06:36;;;;;;;0.50;0.10;;;5.80;99.90;;;;;;5067089;28;20520;-76
2024/01/22 04:09:05;;;;;;;0.60;0.47;;;5.80;99.90;;;;;;5072589;28;20458;-75
2024/01/22 04:11:33;;;;;;;0.50;0.20;;;5.80;99.90;;;;;;5064322;28;20540;-75
2024/01/22 04:14:01;;;;;;;0.50;0.10;;;5.80;99.90;;;;;;5063007;28;20453;-75
2024/01/22 04:16:29;;;;;;;0.50;0.20;;;5.90;99.90;;;;;;5063658;28;20499;-75
2024/01/22 04:18:57;;;;;;;0.50;0.10;;;5.90;99.90;;;;;;5069477;28;20545;-74
2024/01/22 04:21:25;;;;;;;0.50;0.10;;;5.90;99.90;;;;;;5061629;28;20477;-74
2024/01/22 04:23:53;;;;;;;0.50;0.10;;;5.90;99.90;;;;;;5060367;28;20449;-76
2024/01/22 04:26:23;;;;;;;0.50;0.10;;;6.00;99.90;;;;;;5062272;28;20785;-75
2024/01/22 04:28:51;;;;;;;2.20;2.03;;;6.00;99.90;;;;;;5062130;28;20474;-76
2024/01/22 04:31:19;;;;;;;0.50;0.10;;;6.00;99.90;;;;;;5064724;28;20442;-74
2024/01/22 04:33:46;;;;;;;1.13;1.03;;;6.10;99.90;;;;;;5067687;28;20778;-75
2024/01/22 04:36:15;;;;;;;0.53;0.23;;;6.20;99.90;;;;;;5062274;28;20476;-76
2024/01/22 04:38:43;;;;;;;0.60;0.30;;;6.20;99.90;;;;;;5064412;28;20504;-75
2024/01/22 04:41:11;;;;;;;0.50;0.27;;;6.20;99.90;;;;;;5063040;28;20508;-74
2024/01/22 04:43:40;;;;;;;0.50;0.10;;;6.20;99.90;;;;;;5063063;28;20478;-75
2024/01/22 04:46:08;;;;;;;0.50;0.10;;;6.20;99.90;;;;;;5065078;28;20527;-74
2024/01/22 04:48:37;;;;;;;0.50;0.20;;;6.30;99.90;;;;;;5063090;28;20457;-76
2024/01/22 04:51:06;;;;;;;0.50;0.20;;;6.30;99.90;;;;;;5060373;28;20436;-76
2024/01/22 04:53:35;;;;;;;0.50;0.10;;;6.30;99.90;;;;;;5060402;28;20447;-75
2024/01/22 04:56:04;;;;;;;0.60;0.30;;;6.20;99.90;;;;;;5060812;28;20447;-74
2024/01/22 04:58:32;;;;;;;0.50;0.10;;;6.20;99.90;;;;;;5057456;28;21027;-74
2024/01/22 05:01:01;;;;;;;0.50;0.20;;;6.20;99.90;;;;;;5063711;28;20479;-73
2024/01/22 05:03:29;;;;;;;0.60;0.53;;;6.20;99.90;;;;;;5061379;28;20485;-75
2024/01/22 05:05:57;;;;;;;0.60;0.20;;;6.20;99.90;;;;;;5062081;28;20530;-74
2024/01/22 05:08:25;;;;;;;0.60;0.30;;;6.30;99.90;;;;;;5063972;28;20453;-74
2024/01/22 05:10:53;;;;;;;0.50;0.20;;;6.30;99.90;;;;;;5069217;28;20537;-76
2024/01/22 05:13:23;;;;;;;0.70;0.50;;;6.30;99.90;;;;;;5071573;28;20445;-75
2024/01/22 05:15:51;;;;;;;0.50;0.10;;;;;;;;;;5069725;28;20466;-75
2024/01/22 05:18:21;;;;;;;0.50;0.10;;;6.40;99.90;;;;;;5068311;28;20521;-76
2024/01/22 05:20:51;;;;;;;2.00;1.90;;;6.40;99.90;;;;;;5060982;28;20488;-76
2024/01/22 05:23:19;;;;;;;0.60;0.20;;;6.40;99.90;;;;;;5071304;28;20442;-75
2024/01/22 05:25:47;;;;;;;0.80;0.30;;;6.40;99.90;;;;;;5062625;28;20977;-75
2024/01/22 05:28:15;;;;;;;0.50;0.30;;;;;;;;;;5067666;28;20443;-76
2024/01/22 05:30:43;;;;;;;0.50;0.20;;;6.40;99.90;;;;;;5067679;28;20459;-75
2024/01/22 05:33:12;;;;;;;0.50;0.20;;;6.40;99.90;;;;;;5056440;28;20472;-75
2024/01/22 05:35:41;;;;;;;0.60;0.47;;;6.30;99.90;;;;;;5057677;28;20447;-75
2024/01/22 05:38:09;;;;;;;0.50;0.10;;;6.40;99.90;;;;;;5067039;28;20598;-75
2024/01/22 05:40:37;;;;;;;0.50;0.10;;;6.40;99.90;;;;;;5067291;28;20486;-75
2024/01/22 05:43:05;;;;;;;0.50;0.20;;;6.50;99.90;;;;;;5057964;28;20967;-74
2024/01/22 05:45:33;;;;;;;1.80;0.53;;;6.50;99.90;;;;;;5058750;28;20536;-75
2024/01/22 05:48:01;;;;;;;0.50;0.20;;;6.60;99.90;;;;;;5070214;28;20465;-75
2024/01/22 05:50:29;;;;;;;0.60;0.20;;;6.60;99.90;;;;;;5061663;28;20460;-75
2024/01/22 05:52:58;;;;;;;0.60;0.30;;;6.70;99.90;;;;;;5067437;28;20439;-75
2024/01/22 05:55:28;;;;;;;0.60;0.30;;;6.70;99.90;;;;;;5062725;28;20485;-75
2024/01/22 05:57:56;;;;;;;1.27;0.97;;;6.80;99.90;;;;;;5069128;28;20516;-76
2024/01/22 06:00:24;;;;;;;0.50;0.10;;;6.80;99.90;;;;;;5067713;28;20446;-77
2024/01/22 06:02:52;;;;;;;0.50;0.20;;;6.80;99.90;;;;;;5073571;28;20453;-74
2024/01/22 06:05:20;;;;;;;0.77;0.70;;;6.80;99.90;;;;;;5071472;28;20916;-76
2024/01/22 06:07:48;;;;;;;0.50;0.10;;;6.90;99.90;;;;;;5071934;28;20558;-76
2024/01/22 06:10:17;;;;;;;0.50;0.30;;;6.90;99.90;;;;;;5054625;28;20548;-75
2024/01/22 06:12:45;;;;;;;0.50;0.20;;;7.00;99.90;;;;;;5055972;28;20513;-75
2024/01/22 06:15:13;;;;;;;4.73;0.40;;;7.00;99.90;;;;;;5073970;28;20478;-75
2024/01/22 06:17:41;;;;;;;0.50;0.10;;;7.00;99.90;;;;;;5066083;28;20924;-75
2024/01/22 06:20:11;;;;;;;0.73;0.50;;;;;;;;;;5061372;28;20457;-76
2024/01/22 06:22:39;;;;;;;1.20;0.97;;;4.80;99.90;;;;;;5074121;28;20588;-74
2024/01/22 06:25:07;;;;;;;0.50;0.20;;;7.00;99.90;;;;;;5060767;28;20439;-75
2024/01/22 06:27:36;;;;;;;0.50;0.20;;;7.00;99.90;;;;;;5069760;28;20894;-74
2024/01/22 06:30:06;;;;;;;0.50;0.10;;;7.00;99.90;;;;;;5068541;28;20505;-75
2024/01/22 06:32:34;;;;;;;1.83;1.57;;;7.00;99.90;;;;;;5060482;28;20520;-76
2024/01/22 06:35:03;;;;;;;0.50;0.10;;;7.00;99.90;;;;;;5070154;28;20505;-75
2024/01/22 06:37:33;;;;;;;0.60;0.20;;;6.90;99.90;;;;;;5059971;28;20585;-75
2024/01/22 06:40:01;;;;;;;0.60;0.30;;;7.00;99.90;;;;;;5062261;28;20503;-75
2024/01/22 06:42:29;;;;;;;0.50;0.10;;;7.00;99.90;;;;;;5066714;28;20481;-76
2024/01/22 06:45:07;;;;;;;0.50;0.20;;;7.00;99.90;;;;;;5074282;28;20443;-74
2024/01/22 06:47:36;;;;;;;0.80;0.53;;;6.90;99.90;;;;;;5073719;28;20563;-76
2024/01/22 06:50:05;;;;;;;0.50;0.20;;;6.90;99.90;;;;;;5068472;28;20451;-76
2024/01/22 06:52:33;;;;;;;0.50;0.10;;;6.90;99.90;;;;;;5056706;28;20485;-75
2024/01/22 06:55:02;;;;;;;0.50;0.10;;;6.90;99.90;;;;;;5071187;28;20493;-76
2024/01/22 06:57:30;;;;;;;0.50;0.10;;;6.90;99.90;;;;;;5056710;28;20520;-76
2024/01/22 06:59:59;;;;;;;0.50;0.20;;;6.80;99.90;;;;;;5058621;28;20496;-76
2024/01/22 07:02:28;;;;;;;0.60;0.20;;;6.80;99.90;;;;;;5056074;28;20487;-76
2024/01/22 07:04:56;;;;;;;0.50;0.10;;;6.80;99.90;;;;;;5060209;28;20882;-75
2024/01/22 07:07:25;;;;;;;0.97;0.67;;;9.30;99.90;;;;;;5069529;28;20527;-76
2024/01/22 07:09:54;;;;;;;0.60;0.30;;;6.80;99.90;;;;;;5056716;28;20463;-75
2024/01/22 07:12:22;;;;;;;0.50;0.20;;;6.80;99.90;;;;;;5053342;28;20526;-76
2024/01/22 07:14:50;;;;;;;0.50;0.10;;;6.80;99.90;;;;;;5061555;28;20450;-76
2024/01/22 07:17:19;;;;;;;0.63;0.63;;;6.70;99.90;;;;;;5052104;28;20468;-77
2024/01/22 07:19:49;;;;;;;0.50;0.10;;;6.80;99.90;;;;;;5064163;28;20449;-75
2024/01/22 07:22:18;;;;;;;0.50;0.10;;;6.80;99.90;;;;;;5053259;28;20483;-75
2024/01/22 07:24:46;;;;;;;0.50;0.17;;;9.30;99.90;;;;;;5062561;28;20550;-75
2024/01/22 07:27:14;;;;;;;2.60;2.50;;;;;;;;;;5069804;28;20867;-75
2024/01/22 07:29:42;;;;;;;1.17;0.90;;;6.70;99.90;;;;;;5056049;28;20456;-74
2024/01/22 07:32:10;;;;;;;0.50;0.10;;;6.70;99.90;;;;;;5053805;28;20966;-76
2024/01/22 07:34:38;;;;;;;0.50;0.20;;;6.60;99.90;;;;;;5052778;28;20447;-77
2024/01/22 07:37:07;;;;;;;3.13;0.87;;;6.60;99.90;;;;;;5053187;28;20910;-76
2024/01/22 07:39:39;;;;;;;0.50;0.10;;;6.50;99.90;;;;;;5061054;28;20445;-75
2024/01/22 07:42:08;;;;;;;0.70;0.43;;;6.50;99.90;;;;;;5074604;28;20477;-76
2024/01/22 07:44:36;;;;;;;1.13;0.40;;;6.50;99.90;;;;;;5056909;28;20795;-75
2024/01/22 07:47:04;;;;;;;0.50;0.10;;;6.30;99.90;;;;;;5053167;28;20469;-76
2024/01/22 07:49:32;;;;;;;0.70;0.57;;;6.30;99.90;;;;;;5069522;28;20448;-75
2024/01/22 07:52:00;;;;;;;0.60;0.30;;;6.30;99.90;;;;;;5070477;28;20464;-76
2024/01/22 07:54:31;;;;;;;0.50;0.10;;;6.30;99.90;;;;;;5067837;28;20452;-75
2024/01/22 07:56:59;;;;;;;0.50;0.20;;;6.30;99.90;;;;;;5074471;28;20935;-74
2024/01/22 07:59:27;;;;;;;0.77;0.60;;;6.30;99.90;;;;;;5061745;28;20459;-75
2024/01/22 08:01:55;;;;;;;0.50;0.17;;;6.30;99.90;;;;;;5067895;28;20798;-74
2024/01/22 08:04:23;;;;;;;0.50;0.10;;;6.30;99.90;;;;;;5057685;28;20489;-75
2024/01/22 08:06:51;;;;;;;0.50;0.10;;;6.40;99.90;;;;;;5054056;28;20459;-76
2024/01/22 08:09:19;;;;;;;0.90;0.20;;;6.30;99.90;;;;;;5061672;28;20450;-76
2024/01/22 08:11:48;;;;;;;0.63;0.37;;;6.30;99.90;;;;;;5071158;28;20510;-76
2024/01/22 08:14:17;;;;;;;0.50;0.10;;;6.30;99.90;;;;;;5061065;28;20443;-76
2024/01/22 08:16:46;;;;;;;0.50;0.10;;;6.20;99.90;;;;;;5054125;28;20983;-75
2024/01/22 08:19:13;;;;;;;0.50;0.10;;;6.30;99.90;;;;;;5068787;28;20521;-75
2024/01/22 08:21:42;;;;;;;0.50;0.10;;;6.20;99.90;;;;;;5067074;28;20451;-75
2024/01/22 08:24:10;;;;;;;0.80;0.30;;;6.20;99.90;;;;;;5072350;28;20815;-75
2024/01/22 08:26:38;;;;;;;0.50;0.10;;;6.20;99.90;;;;;;5062256;28;20465;-76
2024/01/22 08:29:08;;;;;;;0.50;0.20;;;6.20;99.90;;;;;;5055342;28;20533;-76
2024/01/22 08:31:35;;;;;;;0.60;0.30;;;6.20;99.90;;;;;;5060843;28;20978;-76
2024/01/22 08:34:03;;;;;;;0.50;0.10;;;6.20;99.90;;;;;;5061114;28;20529;-76
2024/01/22 08:36:32;;;;;;;0.50;0.20;;;6.20;99.90;;;;;;5062139;28;20560;-76
2024/01/22 08:39:00;;;;;;;0.50;0.10;;;6.20;99.90;;;;;;5055632;28;20441;-76
2024/01/22 08:41:28;;;;;;;0.50;0.20;;;6.30;99.90;;;;;;5060616;28;20459;-77
2024/01/22 08:43:56;;;;;;;0.83;0.83;;;6.30;99.90;;;;;;5071494;28;20624;-74
2024/01/22 08:46:27;;;;;;;0.50;0.20;;;6.30;99.90;;;;;;5075675;28;20979;-75
2024/01/22 08:48:56;;;;;;;0.50;0.10;;;6.30;99.90;;;;;;5061804;28;20516;-76
2024/01/22 08:51:24;;;;;;;0.50;0.20;;;6.30;99.90;;;;;;5067326;28;20458;-75
2024/01/22 08:53:51;;;;;;;0.50;0.10;;;6.40;99.90;;;;;;5067954;28;20511;-75
2024/01/22 08:56:20;;;;;;;0.50;0.20;;;6.40;99.90;;;;;;5061710;28;20953;-76
2024/01/22 08:58:47;;;;;;;2.40;1.40;;;6.50;99.90;;;;;;5056766;28;20899;-76
2024/01/22 09:01:15;;;;;;;0.50;0.10;;;6.50;99.90;;;;;;5064097;28;20522;-74
2024/01/22 09:03:45;;;;;;;0.50;0.10;;;6.50;99.90;;;;;;5055609;28;20483;-76
2024/01/22 09:06:13;;;;;;;0.50;0.10;;;6.50;99.90;;;;;;5063361;28;20476;-76
2024/01/22 09:08:42;;;;;;;0.50;0.10;;;6.60;99.90;;;;;;5063982;28;20449;-76
2024/01/22 09:11:10;;;;;;;0.50;0.10;;;6.60;99.90;;;;;;5063799;28;20450;-76
2024/01/22 09:13:38;;;;;;;0.50;0.10;;;;;;;;;;5069196;28;20510;-76
2024/01/22 09:16:08;;;;;;;0.60;0.30;;;6.70;99.90;;;;;;5062655;28;20456;-76
2024/01/22 09:18:36;;;;;;;0.70;0.63;;;6.70;99.90;;;;;;5058208;28;20528;-75
2024/01/22 09:21:06;;;;;;;0.50;0.10;;;6.70;99.90;;;;;;5070892;28;20503;-76
2024/01/22 09:23:34;;;;;;;0.50;0.10;;;6.80;99.90;;;;;;5056604;28;20474;-76
2024/01/22 09:26:02;;;;;;;0.60;0.30;;;6.90;99.90;;;;;;5055960;28;20546;-76
2024/01/22 09:28:30;;;;;;;0.50;0.10;;;7.00;99.90;;;;;;5071109;28;20501;-75
2024/01/22 09:30:59;;;;;;;0.50;0.10;;;7.00;99.90;;;;;;5069816;28;20448;-76
2024/01/22 09:33:27;;;;;;;0.50;0.10;;;7.00;99.90;;;;;;5064725;28;21033;-76
2024/01/22 09:35:56;;;;;;;0.50;0.10;;;7.10;99.90;;;;;;5071175;28;20805;-76
2024/01/22 09:38:26;;;;;;;0.50;0.10;;;7.10;99.90;;;;;;5057528;28;20448;-76
2024/01/22 09:40:54;;;;;;;0.50;0.10;;;7.10;99.90;;;;;;5052362;28;20522;-76
2024/01/22 09:43:22;;;;;;;0.50;0.10;;;7.20;99.90;;;;;;5062823;28;20478;-76
2024/01/22 09:45:51;;;;;;;0.50;0.10;;;7.30;99.90;;;;;;5057811;28;21035;-75
2024/01/22 09:48:19;;;;;;;0.50;0.10;;;7.30;99.90;;;;;;5059655;28;20549;-76
2024/01/22 09:50:51;;;;;;;0.50;0.10;;;7.30;99.90;;;;;;5056172;28;20964;-75
2024/01/22 09:53:21;;;;;;;0.80;0.40;;;7.40;99.90;;;;;;5067799;28;20456;-76
2024/01/22 09:55:52;;;;;;;3.97;1.70;;;7.50;99.90;;;;;;5062512;28;20449;-75
2024/01/22 09:58:27;;;;;;;0.50;0.10;;;7.60;99.90;;;;;;5070407;28;20461;-75
2024/01/22 10:00:56;;;;;;;13.43;0.40;;;7.60;99.90;;;;;;5061079;28;21008;-75
2024/01/22 10:03:26;;;;;;;0.50;0.10;;;7.70;99.90;;;;;;5055512;28;20529;-75
2024/01/22 10:05:55;;;;;;;0.50;0.10;;;7.80;99.90;;;;;;5060057;28;20530;-75
2024/01/22 10:08:23;;;;;;;0.50;0.10;;;7.70;99.90;;;;;;5057206;28;20473;-75
2024/01/22 10:10:53;;;;;;;0.50;0.20;;;;;;;;;;5067415;28;20445;-75
2024/01/22 10:13:21;;;;;;;0.50;0.20;;;7.80;99.90;;;;;;5062635;28;20500;-76
2024/01/22 10:15:49;;;;;;;0.50;0.10;;;7.90;99.90;;;;;;5070385;28;20535;-76
2024/01/22 10:18:18;;;;;;;0.50;0.10;;;7.90;99.90;;;;;;5058126;28;20835;-76
2024/01/22 10:20:50;;;;;;;0.50;0.10;;;8.00;99.90;;;;;;5065809;28;20456;-76
2024/01/22 10:23:18;;;;;;;0.50;0.10;;;8.00;99.90;;;;;;5070237;28;20494;-76
2024/01/22 10:25:45;;;;;;;0.50;0.20;;;8.00;99.90;;;;;;5061600;28;20948;-75
2024/01/22 10:28:18;;;;;;;0.60;0.40;;;8.00;99.90;;;;;;5057750;28;20939;-76
2024/01/22 10:31:01;;;;;;;0.50;0.10;;;8.10;99.90;;;;;;5069970;28;20456;-76
2024/01/22 10:33:29;;;;;;;0.50;0.10;;;8.10;99.90;;;;;;5062010;28;20444;-75
2024/01/22 10:36:13;;;;;;;0.50;0.10;;;8.10;99.90;;;;;;5070974;28;20451;-75
2024/01/22 10:38:41;;;;;;;0.50;0.10;;;8.10;99.90;;;;;;5066549;28;20460;-76
2024/01/22 10:41:16;;;;;;;0.50;0.10;;;8.20;99.90;;;;;;5068661;28;20453;-76
2024/01/22 10:43:46;;;;;;;0.50;0.10;;;8.20;99.90;;;;;;5058559;28;20487;-74
2024/01/22 10:46:15;;;;;;;0.50;0.10;;;8.20;99.90;;;;;;5054833;28;20468;-76
2024/01/22 10:48:44;;;;;;;1.03;0.73;;;8.20;99.90;;;;;;5072622;28;20518;-76
2024/01/22 10:51:16;;;;;;;0.50;0.10;;;8.20;99.90;;;;;;5062572;28;20833;-75
2024/01/22 10:53:44;;;;;;;0.50;0.10;;;8.20;99.90;;;;;;5069304;28;20458;-76
2024/01/22 10:56:18;;;;;;;0.50;0.10;;;8.20;99.90;;;;;;5065045;28;20468;-75
2024/01/22 10:58:50;;;;;;;0.50;0.10;;;8.20;99.90;;;;;;5060013;28;20957;-75
2024/01/22 11:01:23;;;;;;;0.50;0.20;;;8.30;99.90;;;;;;5053241;28;20527;-76
2024/01/22 11:03:53;;;;;;;0.50;0.20;;;8.20;99.90;;;;;;5061815;28;20566;-77
2024/01/22 11:06:27;;;;;;;0.50;0.10;;;8.20;99.90;;;;;;5069294;28;20839;-76
2024/01/22 11:08:57;;;;;;;0.50;0.10;;;8.20;99.90;;;;;;5064829;28;20987;-75
2024/01/22 11:11:27;;;;;;;0.83;0.83;;;8.20;99.90;;;;;;5066631;28;20517;-76
2024/01/22 11:13:59;;;;;;;0.70;0.33;;;8.20;99.90;;;;;;5072998;28;21002;-76
2024/01/22 11:16:28;;;;;;;0.90;0.50;;;8.10;99.90;;;;;;5063359;28;20483;-76
2024/01/22 11:18:57;;;;;;;0.50;0.10;;;8.20;99.90;;;;;;5066005;28;20456;-76
2024/01/22 11:21:31;;;;;;;0.50;0.10;;;8.20;99.90;;;;;;5073714;28;20453;-76
2024/01/22 11:24:14;;;;;;;0.50;0.20;;;8.10;99.90;;;;;;5064651;28;20504;-74
2024/01/22 11:26:44;;;;;;;0.50;0.10;;;8.10;99.90;;;;;;5072109;28;21000;-76
2024/01/22 11:29:17;;;;;;;0.50;0.30;;;8.20;99.90;;;;;;5064827;28;20621;-76
2024/01/22 11:31:45;;;;;;;0.50;0.30;;;8.20;99.90;;;;;;5071929;28;20886;-76
2024/01/22 11:34:35;;;;;;;1.33;1.23;;;8.20;99.90;;;;;;5073624;28;20435;-75
2024/01/22 11:37:06;;;;;;;0.50;0.10;;;8.20;99.90;;;;;;5063701;28;20527;-76
2024/01/22 11:39:43;;;;;;;0.50;0.10;;;8.20;99.90;;;;;;5067485;28;20502;-76
2024/01/22 11:42:33;;;;;;;0.50;0.10;;;8.20;99.90;;;;;;5065471;28;20455;-75
2024/01/22 11:45:11;;;;;;;0.50;0.10;;;8.20;99.90;;;;;;5063059;28;20487;-77
2024/01/22 11:47:40;;;;;;;0.50;0.10;;;8.20;99.90;;;;;;5062447;28;20988;-76
2024/01/22 11:50:10;;;;;;;0.50;0.30;;;8.20;99.90;;;;;;5062785;28;20511;-76
2024/01/22 11:52:38;;;;;;;0.50;0.10;;;8.20;99.90;;;;;;5073456;28;20452;-76
2024/01/22 11:55:08;;;;;;;0.50;0.20;;;8.20;1.00;;;;;;5063815;28;20444;-75
2024/01/22 11:57:37;;;;;;;0.50;0.20;;;8.20;1.00;;;;;;5069283;28;20482;-75
2024/01/22 12:00:12;;;;;;;0.60;0.40;;;8.10;1.00;;;;;;5063513;28;20462;-76
2024/01/22 12:02:41;;;;;;;1.10;0.37;;;8.10;1.00;;;;;;5063430;28;20453;-76
2024/01/22 12:05:12;;;;;;;0.50;0.10;;;8.10;1.00;;;;;;5069097;28;20478;-76
2024/01/22 12:07:42;;;;;;;0.50;0.10;;;8.10;1.00;;;;;;5074308;28;20488;-76
2024/01/22 12:10:21;;;;;;;0.50;0.10;;;8.10;1.00;;;;;;5076418;28;20493;-77
2024/01/22 12:12:53;;;;;;;0.70;0.20;;;8.20;1.00;;;;;;5071671;28;20448;-77
2024/01/22 12:15:25;;;;;;;0.60;0.30;;;8.20;1.00;;;;;;5065133;28;20450;-76
2024/01/22 12:17:54;;;;;;;0.50;0.10;;;8.20;1.00;;;;;;5068281;28;20568;-76
2024/01/22 12:20:24;;;;;;;0.60;0.30;;;8.20;1.00;;;;;;5060543;28;20468;-76
2024/01/22 12:22:59;;;;;;;0.50;0.20;;;8.30;1.00;;;;;;5068587;28;20457;-76
2024/01/22 12:25:35;;;;;;;0.50;0.10;;;8.30;1.00;;;;;;5059214;28;20479;-75
2024/01/22 12:28:11;;;;;;;0.50;0.10;;;8.30;1.00;;;;;;5071992;28;20434;-76
2024/01/22 12:30:44;;;;;;;0.50;0.10;;;;;;;;;;5073845;28;20292;-75
2024/01/22 12:33:22;;;;;;;1.63;1.53;;;8.40;1.00;;;;;;5063686;28;20443;-75
2024/01/22 12:35:52;;;;;;;0.50;0.10;;;8.50;1.00;;;;;;5070084;28;20488;-76
2024/01/22 12:38:22;;;;;;;1.27;1.17;;;8.50;1.00;;;;;;5073210;28;20524;-76
2024/01/22 12:41:04;;;;;;;0.50;0.10;;;8.50;1.00;;;;;;5064014;28;21190;-76
2024/01/22 12:43:32;;;;;;;0.50;0.10;;;8.50;1.00;;;;;;5066424;28;20521;-75
2024/01/22 12:46:09;;;;;;;0.50;0.10;;;8.50;1.00;;;;;;5063960;28;20893;-76
2024/01/22 12:48:38;;;;;;;0.50;0.20;;;8.60;1.00;;;;;;5061461;28;20602;-76
2024/01/22 12:51:08;;;;;;;0.50;0.10;;;8.70;1.00;;;;;;5071176;28;20980;-75
2024/01/22 12:53:37;;;;;;;0.50;0.20;;;8.70;1.00;;;;;;5074488;28;20543;-76
2024/01/22 12:56:06;;;;;;;1.03;0.93;;;8.70;1.00;;;;;;5070520;28;20941;-76
2024/01/22 12:58:36;;;;;;;1.10;0.77;;;8.80;1.00;;;;;;5078381;28;20444;-76
2024/01/22 13:01:05;;;;;;;0.80;0.37;;;8.80;1.00;;;;;;5087245;28;20448;-76
2024/01/22 13:03:34;;;;;;;1.10;0.60;;;8.80;1.00;;;;;;5086170;28;20787;-76
2024/01/22 13:06:03;;;;;;;0.77;0.23;;;8.70;1.00;;;;;;5083772;28;20515;-75
2024/01/22 13:08:31;;;;;;;0.50;0.10;;;8.80;1.00;;;;;;5080934;28;20583;-75
2024/01/22 13:11:02;;;;;;;0.60;0.30;;;8.90;1.00;;;;;;5065013;28;20450;-76